sensor_id;sensor_type;location;lat;lon;timestamp;temperature;humidity
34877;DHT22;21086;44.780;17.194;2024-01-11T00:02:05;0.10;99.90
34877;DHT22;21086;44.780;17.194;2024-01-11T00:04:32;0.10;99.90
34877;DHT22;21086;44.780;17.194;2024-01-11T00:06:59;0.00;99.90
34877;DHT22;21086;44.780;17.194;2024-01-11T00:09:26;0.10;99.90
34877;DHT22;21086;44.780;17.194;2024-01-11T00:11:53;0.10;99.90
34877;DHT22;21086;44.780;17.194;2024-01-11T00:14:20;0.10;99.90
34877;DHT22;21086;44.780;17.194;2024-01-11T00:16:47;0.10;99.90
34877;DHT22;21086;44.780;17.194;2024-01-11T00:19:14;0.10;99.90
34877;DHT22;21086;44.780;17.194;2024-01-11T00:21:41;0.10;99.90
34877;DHT22;21086;44.780;17.194;2024-01-11T00:24:08;0.00;99.90
34877;DHT22;21086;44.780;17.194;2024-01-11T00:26:35;0.00;99.90
34877;DHT22;21086;44.780;17.194;2024-01-11T00:29:03;-0.10;99.90
34877;DHT22;21086;44.780;17.194;2024-01-11T00:31:30;-0.10;99.90
34877;DHT22;21086;44.780;17.194;2024-01-11T00:33:57;-0.10;99.90
34877;DHT22;21086;44.780;17.194;2024-01-11T00:36:24;-0.10;99.90
34877;DHT22;21086;44.780;17.194;2024-01-11T00:38:51;-0.10;99.90
34877;DHT22;21086;44.780;17.194;2024-01-11T00:41:18;0.00;99.90
34877;DHT22;21086;44.780;17.194;2024-01-11T00:43:45;0.00;99.90
34877;DHT22;21086;44.780;17.194;2024-01-11T00:46:12;0.00;99.90
34877;DHT22;21086;44.780;17.194;2024-01-11T00:48:39;0.00;99.90
34877;DHT22;21086;44.780;17.194;2024-01-11T00:51:06;0.00;99.90
34877;DHT22;21086;44.780;17.194;2024-01-11T00:53:35;-0.10;99.90
34877;DHT22;21086;44.780;17.194;2024-01-11T00:56:03;0.00;99.90
34877;DHT22;21086;44.780;17.194;2024-01-11T00:58:30;0.00;99.90
34877;DHT22;21086;44.780;17.194;2024-01-11T01:00:57;0.00;99.90
34877;DHT22;21086;44.780;17.194;2024-01-11T01:03:24;0.00;99.90
34877;DHT22;21086;44.780;17.194;2024-01-11T01:05:51;0.00;99.90
34877;DHT22;21086;44.780;17.194;2024-01-11T01:08:18;0.10;99.90
34877;DHT22;21086;44.780;17.194;2024-01-11T01:10:45;0.10;99.90
34877;DHT22;21086;44.780;17.194;2024-01-11T01:13:12;0.20;99.90
34877;DHT22;21086;44.780;17.194;2024-01-11T01:15:39;0.10;99.90
34877;DHT22;21086;44.780;17.194;2024-01-11T01:18:06;0.00;99.90
34877;DHT22;21086;44.780;17.194;2024-01-11T01:20:34;0.00;99.90
34877;DHT22;21086;44.780;17.194;2024-01-11T01:23:01;0.00;99.90
34877;DHT22;21086;44.780;17.194;2024-01-11T01:25:28;0.10;99.90
34877;DHT22;21086;44.780;17.194;2024-01-11T01:27:56;0.10;99.90
34877;DHT22;21086;44.780;17.194;2024-01-11T01:30:23;0.10;99.90
34877;DHT22;21086;44.780;17.194;2024-01-11T01:32:50;0.10;99.90
34877;DHT22;21086;44.780;17.194;2024-01-11T01:35:17;0.10;99.90
34877;DHT22;21086;44.780;17.194;2024-01-11T01:37:45;0.10;99.90
34877;DHT22;21086;44.780;17.194;2024-01-11T01:40:12;0.20;99.90
34877;DHT22;21086;44.780;17.194;2024-01-11T01:42:43;0.10;99.90
34877;DHT22;21086;44.780;17.194;2024-01-11T01:45:14;0.10;99.90
34877;DHT22;21086;44.780;17.194;2024-01-11T01:47:42;0.00;99.90
34877;DHT22;21086;44.780;17.194;2024-01-11T01:50:11;0.00;99.90
34877;DHT22;21086;44.780;17.194;2024-01-11T01:52:40;0.00;99.90
34877;DHT22;21086;44.780;17.194;2024-01-11T01:55:10;0.00;99.90
34877;DHT22;21086;44.780;17.194;2024-01-11T01:57:37;-0.10;99.90
34877;DHT22;21086;44.780;17.194;2024-01-11T02:00:07;0.00;99.90
34877;DHT22;21086;44.780;17.194;2024-01-11T02:02:35;0.00;99.90
34877;DHT22;21086;44.780;17.194;2024-01-11T02:05:02;0.00;99.90
34877;DHT22;21086;44.780;17.194;2024-01-11T02:07:29;0.00;99.90
34877;DHT22;21086;44.780;17.194;2024-01-11T02:09:56;0.00;99.90
34877;DHT22;21086;44.780;17.194;2024-01-11T02:12:25;0.00;99.90
34877;DHT22;21086;44.780;17.194;2024-01-11T02:14:53;0.00;99.90
34877;DHT22;21086;44.780;17.194;2024-01-11T02:17:20;0.00;99.90
34877;DHT22;21086;44.780;17.194;2024-01-11T02:19:48;0.00;99.90
34877;DHT22;21086;44.780;17.194;2024-01-11T02:22:24;-0.20;99.90
34877;DHT22;21086;44.780;17.194;2024-01-11T02:24:54;-0.10;99.90
34877;DHT22;21086;44.780;17.194;2024-01-11T02:27:21;-0.10;99.90
34877;DHT22;21086;44.780;17.194;2024-01-11T02:29:48;-0.20;99.90
34877;DHT22;21086;44.780;17.194;2024-01-11T02:32:15;-0.20;99.90
34877;DHT22;21086;44.780;17.194;2024-01-11T02:34:42;-0.10;99.90
34877;DHT22;21086;44.780;17.194;2024-01-11T02:37:10;-0.20;99.90
34877;DHT22;21086;44.780;17.194;2024-01-11T02:39:37;-0.10;99.90
34877;DHT22;21086;44.780;17.194;2024-01-11T02:42:04;-0.10;99.90
34877;DHT22;21086;44.780;17.194;2024-01-11T02:44:31;-0.10;99.90
34877;DHT22;21086;44.780;17.194;2024-01-11T02:46:58;0.00;99.90
34877;DHT22;21086;44.780;17.194;2024-01-11T02:49:25;0.00;99.90
34877;DHT22;21086;44.780;17.194;2024-01-11T02:51:52;0.00;99.90
34877;DHT22;21086;44.780;17.194;2024-01-11T02:54:19;-0.10;99.90
34877;DHT22;21086;44.780;17.194;2024-01-11T02:56:46;-0.10;99.90
34877;DHT22;21086;44.780;17.194;2024-01-11T02:59:13;-0.10;99.90
34877;DHT22;21086;44.780;17.194;2024-01-11T03:01:40;-0.10;99.90
34877;DHT22;21086;44.780;17.194;2024-01-11T03:04:07;-0.10;99.90
34877;DHT22;21086;44.780;17.194;2024-01-11T03:06:34;-0.10;99.90
34877;DHT22;21086;44.780;17.194;2024-01-11T03:09:01;-0.20;99.90
34877;DHT22;21086;44.780;17.194;2024-01-11T03:11:28;-0.20;99.90
34877;DHT22;21086;44.780;17.194;2024-01-11T03:13:55;-0.10;99.90
34877;DHT22;21086;44.780;17.194;2024-01-11T03:16:22;-0.10;99.90
34877;DHT22;21086;44.780;17.194;2024-01-11T03:18:49;-0.10;99.90
34877;DHT22;21086;44.780;17.194;2024-01-11T03:21:16;-0.20;99.90
34877;DHT22;21086;44.780;17.194;2024-01-11T03:23:44;-0.20;99.90
34877;DHT22;21086;44.780;17.194;2024-01-11T03:26:16;-0.20;99.90
34877;DHT22;21086;44.780;17.194;2024-01-11T03:28:43;-0.20;99.90
34877;DHT22;21086;44.780;17.194;2024-01-11T03:31:11;-0.10;99.90
34877;DHT22;21086;44.780;17.194;2024-01-11T03:33:38;-0.10;99.90
34877;DHT22;21086;44.780;17.194;2024-01-11T03:36:09;-0.10;99.90
34877;DHT22;21086;44.780;17.194;2024-01-11T03:38:37;-0.20;99.90
34877;DHT22;21086;44.780;17.194;2024-01-11T03:41:08;-0.30;99.90
34877;DHT22;21086;44.780;17.194;2024-01-11T03:43:37;-0.30;99.90
34877;DHT22;21086;44.780;17.194;2024-01-11T03:46:04;-0.20;99.90
34877;DHT22;21086;44.780;17.194;2024-01-11T03:48:31;-0.20;99.90
34877;DHT22;21086;44.780;17.194;2024-01-11T03:50:58;-0.20;99.90
34877;DHT22;21086;44.780;17.194;2024-01-11T03:53:25;-0.20;99.90
34877;DHT22;21086;44.780;17.194;2024-01-11T03:55:52;-0.30;99.90
34877;DHT22;21086;44.780;17.194;2024-01-11T03:58:20;-0.30;99.90
34877;DHT22;21086;44.780;17.194;2024-01-11T04:00:47;-0.30;99.90
34877;DHT22;21086;44.780;17.194;2024-01-11T04:03:14;-0.30;99.90
34877;DHT22;21086;44.780;17.194;2024-01-11T04:05:41;-0.20;99.90
34877;DHT22;21086;44.780;17.194;2024-01-11T04:08:09;-0.20;99.90
34877;DHT22;21086;44.780;17.194;2024-01-11T04:10:37;-0.20;99.90
34877;DHT22;21086;44.780;17.194;2024-01-11T04:13:03;-0.20;99.90
34877;DHT22;21086;44.780;17.194;2024-01-11T04:15:30;-0.30;99.90
34877;DHT22;21086;44.780;17.194;2024-01-11T04:17:57;-0.40;99.90
34877;DHT22;21086;44.780;17.194;2024-01-11T04:20:24;-0.40;99.90
34877;DHT22;21086;44.780;17.194;2024-01-11T04:22:52;-0.30;99.90
34877;DHT22;21086;44.780;17.194;2024-01-11T04:25:19;-0.20;99.90
34877;DHT22;21086;44.780;17.194;2024-01-11T04:27:47;-0.20;99.90
34877;DHT22;21086;44.780;17.194;2024-01-11T04:30:14;-0.40;99.90
34877;DHT22;21086;44.780;17.194;2024-01-11T04:32:41;-0.50;99.90
34877;DHT22;21086;44.780;17.194;2024-01-11T04:35:08;-0.50;99.90
34877;DHT22;21086;44.780;17.194;2024-01-11T04:37:35;-0.50;99.90
34877;DHT22;21086;44.780;17.194;2024-01-11T04:40:02;-0.40;99.90
34877;DHT22;21086;44.780;17.194;2024-01-11T04:42:30;-0.40;99.90
34877;DHT22;21086;44.780;17.194;2024-01-11T04:44:57;-0.40;99.90
34877;DHT22;21086;44.780;17.194;2024-01-11T04:47:24;-0.30;99.90
34877;DHT22;21086;44.780;17.194;2024-01-11T04:49:51;-0.40;99.90
34877;DHT22;21086;44.780;17.194;2024-01-11T04:52:18;-0.30;99.90
34877;DHT22;21086;44.780;17.194;2024-01-11T04:54:45;-0.40;99.90
34877;DHT22;21086;44.780;17.194;2024-01-11T04:57:11;-0.50;99.90
34877;DHT22;21086;44.780;17.194;2024-01-11T04:59:38;-0.50;99.90
34877;DHT22;21086;44.780;17.194;2024-01-11T05:02:05;-0.60;99.90
34877;DHT22;21086;44.780;17.194;2024-01-11T05:04:32;-0.50;99.90
34877;DHT22;21086;44.780;17.194;2024-01-11T05:06:59;-0.60;99.90
34877;DHT22;21086;44.780;17.194;2024-01-11T05:09:26;-0.60;99.90
34877;DHT22;21086;44.780;17.194;2024-01-11T05:11:53;-0.50;99.90
34877;DHT22;21086;44.780;17.194;2024-01-11T05:14:20;-0.40;99.90
34877;DHT22;21086;44.780;17.194;2024-01-11T05:16:47;-0.40;99.90
34877;DHT22;21086;44.780;17.194;2024-01-11T05:19:14;-0.50;99.90
34877;DHT22;21086;44.780;17.194;2024-01-11T05:21:41;-0.50;99.90
34877;DHT22;21086;44.780;17.194;2024-01-11T05:24:08;-0.40;99.90
34877;DHT22;21086;44.780;17.194;2024-01-11T05:26:37;-0.40;99.90
34877;DHT22;21086;44.780;17.194;2024-01-11T05:29:05;-0.40;99.90
34877;DHT22;21086;44.780;17.194;2024-01-11T05:31:32;-0.50;99.90
34877;DHT22;21086;44.780;17.194;2024-01-11T05:33:59;-0.50;99.90
34877;DHT22;21086;44.780;17.194;2024-01-11T05:36:26;-0.40;99.90
34877;DHT22;21086;44.780;17.194;2024-01-11T05:38:53;-0.30;99.90
34877;DHT22;21086;44.780;17.194;2024-01-11T05:41:20;-0.20;99.90
34877;DHT22;21086;44.780;17.194;2024-01-11T05:43:47;-0.20;99.90
34877;DHT22;21086;44.780;17.194;2024-01-11T05:46:14;-0.30;99.90
34877;DHT22;21086;44.780;17.194;2024-01-11T05:48:42;-0.30;99.90
34877;DHT22;21086;44.780;17.194;2024-01-11T05:51:09;-0.30;99.90
34877;DHT22;21086;44.780;17.194;2024-01-11T05:53:36;-0.20;99.90
34877;DHT22;21086;44.780;17.194;2024-01-11T05:56:10;-0.40;99.90
34877;DHT22;21086;44.780;17.194;2024-01-11T05:58:39;-0.40;99.90
34877;DHT22;21086;44.780;17.194;2024-01-11T06:01:06;-0.40;99.90
34877;DHT22;21086;44.780;17.194;2024-01-11T06:03:33;-0.40;99.90
34877;DHT22;21086;44.780;17.194;2024-01-11T06:06:02;-0.50;99.90
34877;DHT22;21086;44.780;17.194;2024-01-11T06:08:30;-0.40;99.90
34877;DHT22;21086;44.780;17.194;2024-01-11T06:10:58;-0.40;99.90
34877;DHT22;21086;44.780;17.194;2024-01-11T06:13:25;-0.40;99.90
34877;DHT22;21086;44.780;17.194;2024-01-11T06:15:53;-0.60;99.90
34877;DHT22;21086;44.780;17.194;2024-01-11T06:18:20;-0.60;99.90
34877;DHT22;21086;44.780;17.194;2024-01-11T06:20:47;-0.60;99.90
34877;DHT22;21086;44.780;17.194;2024-01-11T06:23:14;-0.60;99.90
34877;DHT22;21086;44.780;17.194;2024-01-11T06:25:44;-0.40;99.90
34877;DHT22;21086;44.780;17.194;2024-01-11T06:28:13;-0.30;99.90
34877;DHT22;21086;44.780;17.194;2024-01-11T06:30:40;-0.40;99.90
34877;DHT22;21086;44.780;17.194;2024-01-11T06:33:07;-0.40;99.90
34877;DHT22;21086;44.780;17.194;2024-01-11T06:35:34;-0.30;99.90
34877;DHT22;21086;44.780;17.194;2024-01-11T06:38:01;-0.30;99.90
34877;DHT22;21086;44.780;17.194;2024-01-11T06:40:29;-0.40;99.90
34877;DHT22;21086;44.780;17.194;2024-01-11T06:42:56;-0.50;99.90
34877;DHT22;21086;44.780;17.194;2024-01-11T06:45:23;-0.50;99.90
34877;DHT22;21086;44.780;17.194;2024-01-11T06:47:50;-0.40;99.90
34877;DHT22;21086;44.780;17.194;2024-01-11T06:50:17;-0.40;99.90
34877;DHT22;21086;44.780;17.194;2024-01-11T06:52:44;-0.30;99.90
34877;DHT22;21086;44.780;17.194;2024-01-11T06:55:11;-0.30;99.90
34877;DHT22;21086;44.780;17.194;2024-01-11T06:57:38;-0.30;99.90
34877;DHT22;21086;44.780;17.194;2024-01-11T07:00:06;-0.20;99.90
34877;DHT22;21086;44.780;17.194;2024-01-11T07:02:34;-0.20;99.90
34877;DHT22;21086;44.780;17.194;2024-01-11T07:05:02;-0.30;99.90
34877;DHT22;21086;44.780;17.194;2024-01-11T07:07:31;-0.20;99.90
34877;DHT22;21086;44.780;17.194;2024-01-11T07:09:59;-0.30;99.90
34877;DHT22;21086;44.780;17.194;2024-01-11T07:12:26;-0.20;99.90
34877;DHT22;21086;44.780;17.194;2024-01-11T07:14:53;-0.20;99.90
34877;DHT22;21086;44.780;17.194;2024-01-11T07:17:20;-0.20;99.90
34877;DHT22;21086;44.780;17.194;2024-01-11T07:19:47;-0.10;99.90
34877;DHT22;21086;44.780;17.194;2024-01-11T07:22:15;0.00;99.90
34877;DHT22;21086;44.780;17.194;2024-01-11T07:24:41;0.00;99.90
34877;DHT22;21086;44.780;17.194;2024-01-11T07:27:09;0.00;99.90
34877;DHT22;21086;44.780;17.194;2024-01-11T07:29:36;0.00;99.90
34877;DHT22;21086;44.780;17.194;2024-01-11T07:32:03;0.10;99.90
34877;DHT22;21086;44.780;17.194;2024-01-11T07:34:33;0.10;99.90
34877;DHT22;21086;44.780;17.194;2024-01-11T07:37:00;0.10;99.90
34877;DHT22;21086;44.780;17.194;2024-01-11T07:39:27;0.10;99.90
34877;DHT22;21086;44.780;17.194;2024-01-11T07:41:54;0.10;99.90
34877;DHT22;21086;44.780;17.194;2024-01-11T07:44:21;0.20;99.90
34877;DHT22;21086;44.780;17.194;2024-01-11T07:46:48;0.20;99.90
34877;DHT22;21086;44.780;17.194;2024-01-11T07:49:20;0.30;99.90
34877;DHT22;21086;44.780;17.194;2024-01-11T07:51:48;0.30;99.90
34877;DHT22;21086;44.780;17.194;2024-01-11T07:54:15;0.30;99.90
34877;DHT22;21086;44.780;17.194;2024-01-11T07:56:42;0.30;99.90
34877;DHT22;21086;44.780;17.194;2024-01-11T07:59:10;0.30;99.90
34877;DHT22;21086;44.780;17.194;2024-01-11T08:01:42;0.40;99.90
34877;DHT22;21086;44.780;17.194;2024-01-11T08:04:09;0.40;99.90
34877;DHT22;21086;44.780;17.194;2024-01-11T08:06:36;0.50;99.90
34877;DHT22;21086;44.780;17.194;2024-01-11T08:09:04;0.50;99.90
34877;DHT22;21086;44.780;17.194;2024-01-11T08:11:32;0.50;99.90
34877;DHT22;21086;44.780;17.194;2024-01-11T08:14:04;0.60;99.90
34877;DHT22;21086;44.780;17.194;2024-01-11T08:16:33;0.70;99.90
34877;DHT22;21086;44.780;17.194;2024-01-11T08:19:00;0.80;99.90
34877;DHT22;21086;44.780;17.194;2024-01-11T08:21:30;0.90;99.90
34877;DHT22;21086;44.780;17.194;2024-01-11T08:23:57;0.90;99.90
34877;DHT22;21086;44.780;17.194;2024-01-11T08:26:29;1.00;99.90
34877;DHT22;21086;44.780;17.194;2024-01-11T08:28:57;1.00;99.90
34877;DHT22;21086;44.780;17.194;2024-01-11T08:31:25;1.10;99.90
34877;DHT22;21086;44.780;17.194;2024-01-11T08:33:53;1.20;99.90
34877;DHT22;21086;44.780;17.194;2024-01-11T08:36:20;1.20;99.90
34877;DHT22;21086;44.780;17.194;2024-01-11T08:38:47;1.20;99.90
34877;DHT22;21086;44.780;17.194;2024-01-11T08:41:15;1.30;99.90
34877;DHT22;21086;44.780;17.194;2024-01-11T08:43:42;1.30;99.90
34877;DHT22;21086;44.780;17.194;2024-01-11T08:46:09;1.30;99.90
34877;DHT22;21086;44.780;17.194;2024-01-11T08:48:36;1.30;99.90
34877;DHT22;21086;44.780;17.194;2024-01-11T08:51:03;1.30;99.90
34877;DHT22;21086;44.780;17.194;2024-01-11T08:53:30;1.40;99.90
34877;DHT22;21086;44.780;17.194;2024-01-11T08:55:57;1.50;99.90
34877;DHT22;21086;44.780;17.194;2024-01-11T08:58:25;1.50;99.90
34877;DHT22;21086;44.780;17.194;2024-01-11T09:00:51;1.50;99.90
34877;DHT22;21086;44.780;17.194;2024-01-11T09:03:19;1.50;99.90
34877;DHT22;21086;44.780;17.194;2024-01-11T09:05:46;1.50;99.90
34877;DHT22;21086;44.780;17.194;2024-01-11T09:08:13;1.60;99.90
34877;DHT22;21086;44.780;17.194;2024-01-11T09:10:40;1.70;99.90
34877;DHT22;21086;44.780;17.194;2024-01-11T09:13:08;1.80;99.90
34877;DHT22;21086;44.780;17.194;2024-01-11T09:15:38;1.90;99.90
34877;DHT22;21086;44.780;17.194;2024-01-11T09:18:05;1.90;99.90
34877;DHT22;21086;44.780;17.194;2024-01-11T09:20:32;1.90;99.90
34877;DHT22;21086;44.780;17.194;2024-01-11T09:23:00;2.00;99.90
34877;DHT22;21086;44.780;17.194;2024-01-11T09:25:30;1.90;99.90
34877;DHT22;21086;44.780;17.194;2024-01-11T09:27:58;2.00;99.90
34877;DHT22;21086;44.780;17.194;2024-01-11T09:30:25;1.90;99.90
34877;DHT22;21086;44.780;17.194;2024-01-11T09:32:52;1.90;99.90
34877;DHT22;21086;44.780;17.194;2024-01-11T09:35:19;2.00;99.90
34877;DHT22;21086;44.780;17.194;2024-01-11T09:37:46;2.00;99.90
34877;DHT22;21086;44.780;17.194;2024-01-11T09:40:14;2.00;99.90
34877;DHT22;21086;44.780;17.194;2024-01-11T09:42:41;2.20;99.90
34877;DHT22;21086;44.780;17.194;2024-01-11T09:45:16;2.20;99.90
34877;DHT22;21086;44.780;17.194;2024-01-11T09:47:46;2.20;99.90
34877;DHT22;21086;44.780;17.194;2024-01-11T09:50:16;2.30;99.90
34877;DHT22;21086;44.780;17.194;2024-01-11T09:52:49;2.10;99.90
34877;DHT22;21086;44.780;17.194;2024-01-11T09:55:17;2.10;99.90
34877;DHT22;21086;44.780;17.194;2024-01-11T09:57:46;2.20;99.90
34877;DHT22;21086;44.780;17.194;2024-01-11T10:00:16;2.20;99.90
34877;DHT22;21086;44.780;17.194;2024-01-11T10:02:48;2.30;99.90
34877;DHT22;21086;44.780;17.194;2024-01-11T10:05:17;2.40;99.90
34877;DHT22;21086;44.780;17.194;2024-01-11T10:07:44;2.40;99.90
34877;DHT22;21086;44.780;17.194;2024-01-11T10:10:14;2.40;99.90
34877;DHT22;21086;44.780;17.194;2024-01-11T10:12:44;2.40;99.90
34877;DHT22;21086;44.780;17.194;2024-01-11T10:15:12;2.30;99.90
34877;DHT22;21086;44.780;17.194;2024-01-11T10:17:42;2.30;99.90
34877;DHT22;21086;44.780;17.194;2024-01-11T10:20:13;2.30;99.90
34877;DHT22;21086;44.780;17.194;2024-01-11T10:22:51;2.30;99.90
34877;DHT22;21086;44.780;17.194;2024-01-11T10:25:19;2.40;99.90
34877;DHT22;21086;44.780;17.194;2024-01-11T10:27:46;2.50;99.90
34877;DHT22;21086;44.780;17.194;2024-01-11T10:30:14;2.60;99.90
34877;DHT22;21086;44.780;17.194;2024-01-11T10:32:45;2.70;99.90
34877;DHT22;21086;44.780;17.194;2024-01-11T10:35:13;2.80;99.90
34877;DHT22;21086;44.780;17.194;2024-01-11T10:37:41;2.80;99.90
34877;DHT22;21086;44.780;17.194;2024-01-11T10:40:10;3.00;99.90
34877;DHT22;21086;44.780;17.194;2024-01-11T10:42:42;3.10;99.90
34877;DHT22;21086;44.780;17.194;2024-01-11T10:45:19;3.00;99.90
34877;DHT22;21086;44.780;17.194;2024-01-11T10:47:51;3.10;99.90
34877;DHT22;21086;44.780;17.194;2024-01-11T10:50:22;3.20;99.90
34877;DHT22;21086;44.780;17.194;2024-01-11T10:55:57;3.40;99.90
34877;DHT22;21086;44.780;17.194;2024-01-11T10:58:26;3.50;99.90
34877;DHT22;21086;44.780;17.194;2024-01-11T11:00:54;3.50;99.90
34877;DHT22;21086;44.780;17.194;2024-01-11T11:03:23;3.30;99.90
34877;DHT22;21086;44.780;17.194;2024-01-11T11:05:55;3.30;99.90
34877;DHT22;21086;44.780;17.194;2024-01-11T11:08:23;3.20;99.90
34877;DHT22;21086;44.780;17.194;2024-01-11T11:10:55;3.10;99.90
34877;DHT22;21086;44.780;17.194;2024-01-11T11:13:24;3.10;99.90
34877;DHT22;21086;44.780;17.194;2024-01-11T11:15:53;3.00;99.90
34877;DHT22;21086;44.780;17.194;2024-01-11T11:18:21;3.00;99.90
34877;DHT22;21086;44.780;17.194;2024-01-11T11:20:49;3.10;99.90
34877;DHT22;21086;44.780;17.194;2024-01-11T11:23:18;3.10;99.90
34877;DHT22;21086;44.780;17.194;2024-01-11T11:25:47;3.10;99.90
34877;DHT22;21086;44.780;17.194;2024-01-11T11:28:15;3.00;99.90
34877;DHT22;21086;44.780;17.194;2024-01-11T11:30:44;2.90;99.90
34877;DHT22;21086;44.780;17.194;2024-01-11T11:33:23;3.00;99.90
34877;DHT22;21086;44.780;17.194;2024-01-11T11:35:55;3.10;99.90
34877;DHT22;21086;44.780;17.194;2024-01-11T11:38:28;3.10;99.90
34877;DHT22;21086;44.780;17.194;2024-01-11T11:41:00;3.20;99.90
34877;DHT22;21086;44.780;17.194;2024-01-11T11:43:28;3.20;99.90
34877;DHT22;21086;44.780;17.194;2024-01-11T11:45:56;3.20;99.90
34877;DHT22;21086;44.780;17.194;2024-01-11T11:51:12;3.10;99.90
34877;DHT22;21086;44.780;17.194;2024-01-11T11:53:46;2.80;99.90
34877;DHT22;21086;44.780;17.194;2024-01-11T11:56:15;2.70;99.90
34877;DHT22;21086;44.780;17.194;2024-01-11T11:58:44;2.70;99.90
34877;DHT22;21086;44.780;17.194;2024-01-11T12:01:16;2.80;99.90
34877;DHT22;21086;44.780;17.194;2024-01-11T12:03:45;2.90;99.90
34877;DHT22;21086;44.780;17.194;2024-01-11T12:06:20;2.90;99.90
34877;DHT22;21086;44.780;17.194;2024-01-11T12:08:52;2.90;99.90
34877;DHT22;21086;44.780;17.194;2024-01-11T12:11:23;2.90;99.90
34877;DHT22;21086;44.780;17.194;2024-01-11T12:13:51;2.80;99.90
34877;DHT22;21086;44.780;17.194;2024-01-11T12:16:20;2.70;99.90
34877;DHT22;21086;44.780;17.194;2024-01-11T12:18:49;2.70;99.90
34877;DHT22;21086;44.780;17.194;2024-01-11T12:21:16;2.80;99.90
34877;DHT22;21086;44.780;17.194;2024-01-11T12:23:44;2.80;99.90
34877;DHT22;21086;44.780;17.194;2024-01-11T12:26:11;2.70;99.90
34877;DHT22;21086;44.780;17.194;2024-01-11T12:28:41;2.80;99.90
34877;DHT22;21086;44.780;17.194;2024-01-11T12:31:11;2.90;99.90
34877;DHT22;21086;44.780;17.194;2024-01-11T12:33:39;2.90;99.90
34877;DHT22;21086;44.780;17.194;2024-01-11T12:36:08;2.90;99.90
34877;DHT22;21086;44.780;17.194;2024-01-11T12:38:36;2.90;99.90
34877;DHT22;21086;44.780;17.194;2024-01-11T12:41:04;2.90;99.90
34877;DHT22;21086;44.780;17.194;2024-01-11T12:43:32;3.00;99.90
34877;DHT22;21086;44.780;17.194;2024-01-11T12:46:01;3.00;99.90
34877;DHT22;21086;44.780;17.194;2024-01-11T12:48:29;2.90;99.90
34877;DHT22;21086;44.780;17.194;2024-01-11T12:50:58;2.80;99.90
34877;DHT22;21086;44.780;17.194;2024-01-11T12:53:40;2.70;99.90
34877;DHT22;21086;44.780;17.194;2024-01-11T12:56:08;2.60;99.90
34877;DHT22;21086;44.780;17.194;2024-01-11T12:58:38;2.60;99.90
34877;DHT22;21086;44.780;17.194;2024-01-11T13:01:05;2.60;99.90
34877;DHT22;21086;44.780;17.194;2024-01-11T13:03:35;2.60;99.90
34877;DHT22;21086;44.780;17.194;2024-01-11T13:06:03;2.50;99.90
34877;DHT22;21086;44.780;17.194;2024-01-11T13:08:32;2.50;99.90
34877;DHT22;21086;44.780;17.194;2024-01-11T13:10:59;2.50;99.90
34877;DHT22;21086;44.780;17.194;2024-01-11T13:13:28;2.50;99.90
34877;DHT22;21086;44.780;17.194;2024-01-11T13:15:57;2.50;99.90
34877;DHT22;21086;44.780;17.194;2024-01-11T13:18:25;2.40;99.90
34877;DHT22;21086;44.780;17.194;2024-01-11T13:20:52;2.40;99.90
34877;DHT22;21086;44.780;17.194;2024-01-11T13:23:19;2.40;99.90
34877;DHT22;21086;44.780;17.194;2024-01-11T13:25:48;2.10;99.90
34877;DHT22;21086;44.780;17.194;2024-01-11T13:28:18;1.60;99.90
34877;DHT22;21086;44.780;17.194;2024-01-11T13:30:46;1.00;99.90
34877;DHT22;21086;44.780;17.194;2024-01-11T13:33:14;0.70;99.90
34877;DHT22;21086;44.780;17.194;2024-01-11T13:35:44;0.40;99.90
34877;DHT22;21086;44.780;17.194;2024-01-11T13:38:12;0.30;99.90
34877;DHT22;21086;44.780;17.194;2024-01-11T13:40:39;0.00;99.90
34877;DHT22;21086;44.780;17.194;2024-01-11T13:43:07;-0.10;99.90
34877;DHT22;21086;44.780;17.194;2024-01-11T13:45:35;0.20;99.90
34877;DHT22;21086;44.780;17.194;2024-01-11T13:48:05;0.10;99.90
34877;DHT22;21086;44.780;17.194;2024-01-11T13:50:33;0.10;99.90
34877;DHT22;21086;44.780;17.194;2024-01-11T13:53:01;0.30;99.90
34877;DHT22;21086;44.780;17.194;2024-01-11T13:55:29;0.50;99.90
34877;DHT22;21086;44.780;17.194;2024-01-11T13:58:05;0.70;99.90
34877;DHT22;21086;44.780;17.194;2024-01-11T14:00:32;0.90;99.90
34877;DHT22;21086;44.780;17.194;2024-01-11T14:03:00;0.70;99.90
34877;DHT22;21086;44.780;17.194;2024-01-11T14:05:28;0.80;99.90
34877;DHT22;21086;44.780;17.194;2024-01-11T14:07:55;0.80;99.90
34877;DHT22;21086;44.780;17.194;2024-01-11T14:10:25;0.90;99.90
34877;DHT22;21086;44.780;17.194;2024-01-11T14:12:54;0.90;99.90
34877;DHT22;21086;44.780;17.194;2024-01-11T14:15:21;1.10;99.90
34877;DHT22;21086;44.780;17.194;2024-01-11T14:17:48;1.20;99.90
34877;DHT22;21086;44.780;17.194;2024-01-11T14:20:16;1.20;99.90
34877;DHT22;21086;44.780;17.194;2024-01-11T14:22:45;1.30;99.90
34877;DHT22;21086;44.780;17.194;2024-01-11T14:25:20;1.40;99.90
34877;DHT22;21086;44.780;17.194;2024-01-11T14:27:48;1.50;99.90
34877;DHT22;21086;44.780;17.194;2024-01-11T14:30:16;1.40;99.90
34877;DHT22;21086;44.780;17.194;2024-01-11T14:32:43;1.50;99.90
34877;DHT22;21086;44.780;17.194;2024-01-11T14:35:10;1.50;99.90
34877;DHT22;21086;44.780;17.194;2024-01-11T14:37:39;1.60;99.90
34877;DHT22;21086;44.780;17.194;2024-01-11T14:40:08;1.20;99.90
34877;DHT22;21086;44.780;17.194;2024-01-11T14:42:39;1.20;99.90
34877;DHT22;21086;44.780;17.194;2024-01-11T14:45:06;0.90;99.90
34877;DHT22;21086;44.780;17.194;2024-01-11T14:47:34;0.90;99.90
34877;DHT22;21086;44.780;17.194;2024-01-11T14:50:02;0.90;99.90
34877;DHT22;21086;44.780;17.194;2024-01-11T14:52:37;1.00;99.90
34877;DHT22;21086;44.780;17.194;2024-01-11T14:55:07;0.60;99.90
34877;DHT22;21086;44.780;17.194;2024-01-11T14:57:38;0.30;99.90
34877;DHT22;21086;44.780;17.194;2024-01-11T15:00:06;0.10;99.90
34877;DHT22;21086;44.780;17.194;2024-01-11T15:02:40;-0.10;99.90
34877;DHT22;21086;44.780;17.194;2024-01-11T15:05:08;-0.40;99.90
34877;DHT22;21086;44.780;17.194;2024-01-11T15:07:35;-0.50;99.90
34877;DHT22;21086;44.780;17.194;2024-01-11T15:10:02;-0.30;99.90
34877;DHT22;21086;44.780;17.194;2024-01-11T15:12:30;-0.10;99.90
34877;DHT22;21086;44.780;17.194;2024-01-11T15:14:56;0.10;99.90
34877;DHT22;21086;44.780;17.194;2024-01-11T15:17:24;0.30;99.90
34877;DHT22;21086;44.780;17.194;2024-01-11T15:19:51;0.40;99.90
34877;DHT22;21086;44.780;17.194;2024-01-11T15:22:18;0.50;99.90
34877;DHT22;21086;44.780;17.194;2024-01-11T15:24:45;0.40;99.90
34877;DHT22;21086;44.780;17.194;2024-01-11T15:27:20;0.20;99.90
34877;DHT22;21086;44.780;17.194;2024-01-11T15:29:48;0.30;99.90
34877;DHT22;21086;44.780;17.194;2024-01-11T15:32:17;0.40;99.90
34877;DHT22;21086;44.780;17.194;2024-01-11T15:34:44;0.50;99.90
34877;DHT22;21086;44.780;17.194;2024-01-11T15:37:11;0.60;99.90